createdAt,value
2023-05-04T00:02:18.412Z,6.80
2023-05-04T00:04:45.013Z,6.80
2023-05-04T00:07:11.663Z,6.85
2023-05-04T00:09:38.464Z,6.80
2023-05-04T00:12:06.754Z,6.12
2023-05-04T00:14:33.428Z,5.36
2023-05-04T00:17:00.027Z,4.74
2023-05-04T00:19:26.590Z,4.37
2023-05-04T00:21:53.126Z,4.71
2023-05-04T00:24:19.648Z,5.16
2023-05-04T00:26:46.346Z,5.44
2023-05-04T00:29:12.934Z,5.60
2023-05-04T00:31:39.607Z,5.73
2023-05-04T00:34:06.323Z,5.83
2023-05-04T00:36:32.888Z,5.91
2023-05-04T00:38:59.487Z,5.97
2023-05-04T00:41:26.106Z,6.03
2023-05-04T00:43:52.673Z,6.10
2023-05-04T00:46:19.462Z,6.20
2023-05-04T00:48:48.514Z,6.29
2023-05-04T00:51:17.035Z,6.26
2023-05-04T00:53:44.077Z,6.24
2023-05-04T00:56:11.896Z,6.17
2023-05-04T00:58:38.507Z,6.17
2023-05-04T01:01:05.367Z,6.22
2023-05-04T01:03:33.729Z,6.29
2023-05-04T01:06:19.545Z,6.33
2023-05-04T01:08:57.882Z,6.40
2023-05-04T01:11:42.733Z,6.50
2023-05-04T01:14:10.410Z,6.59
2023-05-04T01:16:37.083Z,6.57
2023-05-04T01:19:03.987Z,5.94
2023-05-04T01:21:31.296Z,5.12
2023-05-04T01:23:59.126Z,4.59
2023-05-04T01:26:29.909Z,4.86
2023-05-04T01:29:04.918Z,5.28
2023-05-04T01:31:35.399Z,5.59
2023-05-04T01:34:03.349Z,5.78
2023-05-04T01:36:30.822Z,5.91
2023-05-04T01:39:00.218Z,6.03
2023-05-04T01:41:27.412Z,6.14
2023-05-04T01:43:54.418Z,6.23
2023-05-04T01:46:21.446Z,6.33
2023-05-04T01:48:48.159Z,6.40
2023-05-04T01:51:14.790Z,6.43
2023-05-04T01:53:41.380Z,6.47
2023-05-04T01:56:09.398Z,6.39
2023-05-04T01:58:35.993Z,5.74
2023-05-04T02:01:02.578Z,4.95
2023-05-04T02:03:29.510Z,4.42
2023-05-04T02:05:56.186Z,4.62
2023-05-04T02:08:22.932Z,4.99
2023-05-04T02:10:49.603Z,5.25
2023-05-04T02:13:16.706Z,5.42
2023-05-04T02:18:44.881Z,5.59
2023-05-04T02:21:11.613Z,5.71
2023-05-04T02:23:38.184Z,5.84
2023-05-04T02:26:04.763Z,5.97
2023-05-04T02:28:31.322Z,6.05
2023-05-04T02:30:57.970Z,6.09
2023-05-04T02:33:24.509Z,6.14
2023-05-04T02:35:51.882Z,6.18
2023-05-04T02:38:18.420Z,6.25
2023-05-04T02:40:45.010Z,6.18
2023-05-04T02:43:11.653Z,5.47
2023-05-04T02:45:38.283Z,4.64
2023-05-04T02:48:05.099Z,4.11
2023-05-04T02:50:32.080Z,4.35
2023-05-04T02:52:58.705Z,4.80
2023-05-04T02:55:25.804Z,5.11
2023-05-04T02:57:52.382Z,5.29
2023-05-04T03:00:19.103Z,5.37
2023-05-04T03:02:45.877Z,5.48
2023-05-04T03:05:12.699Z,5.61
2023-05-04T03:07:39.402Z,5.73
2023-05-04T03:10:07.353Z,5.87
2023-05-04T03:12:34.370Z,5.98
2023-05-04T03:15:01.055Z,5.98
2023-05-04T03:17:27.779Z,5.33
2023-05-04T03:19:55.238Z,4.52
2023-05-04T03:22:22.432Z,4.03
2023-05-04T03:24:49.485Z,4.34
2023-05-04T03:27:17.293Z,4.82
2023-05-04T03:29:44.163Z,5.15
2023-05-04T03:32:13.377Z,5.42
2023-05-04T03:34:40.231Z,5.62
2023-05-04T03:37:08.144Z,5.77
2023-05-04T03:39:34.851Z,5.91
2023-05-04T03:42:02.639Z,6.05
2023-05-04T03:44:29.387Z,6.19
2023-05-04T03:46:56.116Z,6.27
2023-05-04T03:49:22.705Z,6.40
2023-05-04T03:51:49.314Z,6.56
2023-05-04T03:54:15.920Z,6.68
2023-05-04T03:56:42.518Z,6.67
2023-05-04T03:59:09.195Z,6.05
2023-05-04T04:01:36.509Z,5.30
2023-05-04T04:04:03.581Z,4.84
2023-05-04T04:06:30.994Z,5.18
2023-05-04T04:08:57.603Z,5.64
2023-05-04T04:11:24.189Z,5.98
2023-05-04T04:13:51.136Z,6.25
2023-05-04T04:16:17.783Z,6.48
2023-05-04T04:18:44.523Z,6.68
2023-05-04T04:21:11.238Z,6.86
2023-05-04T04:23:38.871Z,7.05
2023-05-04T04:26:08.342Z,7.22
2023-05-04T04:28:34.963Z,7.38
2023-05-04T04:31:03.298Z,7.52
2023-05-04T04:33:29.965Z,7.73
2023-05-04T04:35:56.581Z,7.93
2023-05-04T04:38:23.234Z,8.15
2023-05-04T04:40:49.768Z,8.24
2023-05-04T04:43:16.330Z,7.75
2023-05-04T04:45:42.960Z,7.18
2023-05-04T04:48:09.992Z,6.77
2023-05-04T04:50:39.191Z,6.70
2023-05-04T04:53:05.784Z,7.38
2023-05-04T04:55:32.590Z,8.09
2023-05-04T04:57:59.172Z,8.69
2023-05-04T05:00:26.241Z,9.07
2023-05-04T05:02:52.896Z,9.50
2023-05-04T05:05:19.725Z,9.95
2023-05-04T05:07:46.338Z,10.39
2023-05-04T05:10:19.889Z,10.47
2023-05-04T05:12:51.949Z,10.08
2023-05-04T05:15:18.677Z,9.78
2023-05-04T05:17:45.282Z,9.57
2023-05-04T05:20:12.050Z,9.46
2023-05-04T05:22:39.406Z,9.42
2023-05-04T05:25:07.542Z,9.41
2023-05-04T05:27:34.646Z,9.47
2023-05-04T05:30:02.421Z,9.53
2023-05-04T05:32:29.782Z,9.60
2023-05-04T05:34:56.835Z,9.82
2023-05-04T05:37:24.150Z,10.66
2023-05-04T05:39:51.206Z,11.55
2023-05-04T05:42:18.252Z,12.23
2023-05-04T05:44:44.828Z,12.62
2023-05-04T05:47:11.395Z,12.36
2023-05-04T05:49:38.484Z,11.96
2023-05-04T05:52:05.322Z,11.69
2023-05-04T05:54:33.494Z,11.53
2023-05-04T05:57:00.206Z,11.45
2023-05-04T05:59:26.799Z,11.45
2023-05-04T06:01:53.559Z,11.48
2023-05-04T06:04:20.290Z,11.51
2023-05-04T06:06:46.982Z,11.54
2023-05-04T06:09:13.605Z,11.58
2023-05-04T06:11:40.114Z,11.62
2023-05-04T06:14:06.743Z,11.66
2023-05-04T06:16:33.387Z,11.70
2023-05-04T06:18:59.998Z,11.75
2023-05-04T06:21:26.651Z,11.82
2023-05-04T06:23:53.263Z,11.89
2023-05-04T06:26:20.211Z,11.97
2023-05-04T06:28:46.941Z,12.04
2023-05-04T06:31:13.645Z,12.14
2023-05-04T06:33:40.205Z,12.24
2023-05-04T06:36:07.441Z,12.40
2023-05-04T06:38:35.739Z,12.63
2023-05-04T06:41:04.624Z,13.23
2023-05-04T06:43:32.441Z,14.80
2023-05-04T06:46:03.871Z,16.99
2023-05-04T06:48:31.826Z,19.34
2023-05-04T06:51:00.652Z,21.35
2023-05-04T06:53:28.399Z,22.63
2023-05-04T06:55:55.253Z,23.81
2023-05-04T06:58:22.003Z,25.03
2023-05-04T07:00:48.906Z,26.32
2023-05-04T07:03:15.824Z,27.54
2023-05-04T07:05:44.563Z,28.15
2023-05-04T07:08:11.787Z,28.69
2023-05-04T07:10:38.556Z,29.49
2023-05-04T07:13:05.890Z,30.22
2023-05-04T07:15:33.897Z,31.14
2023-05-04T07:18:01.495Z,32.12
2023-05-04T07:20:28.687Z,33.14
2023-05-04T07:22:57.055Z,34.05
2023-05-04T07:25:30.497Z,34.55
2023-05-04T07:27:58.267Z,34.91
2023-05-04T07:30:25.048Z,35.45
2023-05-04T07:32:52.013Z,34.88
2023-05-04T07:35:19.246Z,33.46
2023-05-04T07:37:46.499Z,32.05
2023-05-04T07:40:14.775Z,31.55
2023-05-04T07:42:42.249Z,31.09
2023-05-04T07:45:09.861Z,31.31
2023-05-04T07:47:37.193Z,32.23
2023-05-04T07:50:07.452Z,32.98
2023-05-04T07:52:34.313Z,33.50
2023-05-04T07:55:00.932Z,33.96
2023-05-04T07:57:27.553Z,34.02
2023-05-04T07:59:55.435Z,32.58
2023-05-04T08:02:22.889Z,30.48
2023-05-04T08:04:50.046Z,29.40
2023-05-04T08:07:17.157Z,30.00
2023-05-04T08:09:43.844Z,31.14
2023-05-04T08:12:12.301Z,32.18
2023-05-04T08:14:39.908Z,33.33
2023-05-04T08:17:06.556Z,34.53
2023-05-04T08:19:33.915Z,35.19
2023-05-04T08:22:00.747Z,34.85
2023-05-04T08:24:27.456Z,34.68
2023-05-04T08:27:06.626Z,34.54
2023-05-04T08:29:37.210Z,34.40
2023-05-04T08:32:04.316Z,34.22
2023-05-04T08:34:31.461Z,34.79
2023-05-04T08:36:58.306Z,35.71
2023-05-04T08:39:25.220Z,35.46
2023-05-04T08:41:51.870Z,34.88
2023-05-04T08:44:21.165Z,35.00
2023-05-04T08:46:54.291Z,35.34
2023-05-04T08:49:21.786Z,35.67
2023-05-04T08:51:51.270Z,35.90
2023-05-04T08:54:18.569Z,36.31
2023-05-04T08:56:47.224Z,36.84
2023-05-04T08:59:22.055Z,36.97
2023-05-04T09:01:53.060Z,37.12
2023-05-04T09:04:20.708Z,37.24
2023-05-04T09:06:47.528Z,37.42
2023-05-04T09:09:14.626Z,37.67
2023-05-04T09:11:41.428Z,37.98
2023-05-04T09:14:08.180Z,38.98
2023-05-04T09:16:36.617Z,40.46
2023-05-04T09:19:04.819Z,41.74
2023-05-04T09:21:32.211Z,42.86
2023-05-04T09:23:59.316Z,43.33
2023-05-04T09:26:30.629Z,43.44
2023-05-04T09:29:09.725Z,43.21
2023-05-04T09:31:48.057Z,43.14
2023-05-04T09:34:15.144Z,43.34
2023-05-04T09:36:42.288Z,43.60
2023-05-04T09:39:11.500Z,44.07
2023-05-04T09:41:38.458Z,44.62
2023-05-04T09:44:05.465Z,44.96
2023-05-04T09:46:33.027Z,44.76
2023-05-04T09:49:00.801Z,44.43
2023-05-04T09:51:27.622Z,44.08
2023-05-04T09:53:54.657Z,43.34
2023-05-04T09:56:37.591Z,42.55
2023-05-04T09:59:05.341Z,42.30
2023-05-04T10:01:32.442Z,41.76
2023-05-04T10:03:59.418Z,41.48
2023-05-04T10:06:28.949Z,41.52
2023-05-04T10:08:56.679Z,41.83
2023-05-04T10:11:25.756Z,42.07
2023-05-04T10:13:54.607Z,42.27
2023-05-04T10:16:46.061Z,42.44
2023-05-04T10:19:38.352Z,42.53
2023-05-04T10:22:32.942Z,42.62
2023-05-04T10:25:22.506Z,42.80
2023-05-04T10:27:49.097Z,43.32
2023-05-04T10:30:18.521Z,43.81
2023-05-04T10:32:45.871Z,44.00
2023-05-04T10:35:12.837Z,44.13
2023-05-04T10:37:51.285Z,44.42
2023-05-04T10:40:18.219Z,44.73
2023-05-04T10:42:45.234Z,43.94
2023-05-04T10:45:13.091Z,43.20
2023-05-04T10:47:40.939Z,42.88
2023-05-04T10:50:14.694Z,42.66
2023-05-04T10:52:48.935Z,42.13
2023-05-04T10:55:17.135Z,41.30
2023-05-04T10:58:02.247Z,40.84
2023-05-04T11:00:46.604Z,40.64
2023-05-04T11:03:14.530Z,40.23
2023-05-04T11:05:52.748Z,39.36
2023-05-04T11:08:26.507Z,38.89
2023-05-04T11:11:05.845Z,38.80
2023-05-04T11:13:41.500Z,38.68
2023-05-04T11:16:12.370Z,39.11
2023-05-04T11:18:39.500Z,39.53
2023-05-04T11:21:06.257Z,39.53
2023-05-04T11:23:33.492Z,38.75
2023-05-04T11:26:12.311Z,38.59
2023-05-04T11:28:39.617Z,39.05
2023-05-04T11:31:17.445Z,39.66
2023-05-04T11:33:51.570Z,40.52
2023-05-04T11:36:19.433Z,41.49
2023-05-04T11:38:47.007Z,42.18
2023-05-04T11:41:13.876Z,42.61
2023-05-04T11:43:43.661Z,42.92
2023-05-04T11:46:11.203Z,42.76
2023-05-04T11:48:38.900Z,42.12
2023-05-04T11:51:06.567Z,41.38
2023-05-04T11:53:41.610Z,41.24
2023-05-04T11:56:09.850Z,41.49
2023-05-04T11:58:37.265Z,41.76
2023-05-04T12:01:04.965Z,41.93
2023-05-04T12:03:48.623Z,42.06
2023-05-04T12:06:33.059Z,42.24
2023-05-04T12:09:06.910Z,41.96
2023-05-04T12:11:39.528Z,41.33
2023-05-04T12:14:12.703Z,40.65
2023-05-04T12:16:43.040Z,40.14
2023-05-04T12:19:15.728Z,39.38
2023-05-04T12:21:52.403Z,38.97
2023-05-04T12:24:25.199Z,38.76
2023-05-04T12:26:54.257Z,38.11
2023-05-04T12:29:23.723Z,37.23
2023-05-04T12:31:51.927Z,36.09
2023-05-04T12:34:21.757Z,35.06
2023-05-04T12:36:52.341Z,34.65
2023-05-04T12:39:21.758Z,34.36
2023-05-04T12:41:50.795Z,34.17
2023-05-04T12:44:21.278Z,34.03
2023-05-04T12:46:50.214Z,34.00
2023-05-04T12:49:19.051Z,33.81
2023-05-04T12:51:48.155Z,33.25
2023-05-04T12:54:17.773Z,33.08
2023-05-04T12:56:46.751Z,33.31
2023-05-04T12:59:15.784Z,33.75
2023-05-04T13:01:45.189Z,33.91
2023-05-04T13:04:14.137Z,33.54
2023-05-04T13:14:11.191Z,31.91
2023-05-04T13:16:37.792Z,31.33
2023-05-04T13:19:04.949Z,30.60
2023-05-04T13:21:31.920Z,29.67
2023-05-04T13:23:59.378Z,28.62
2023-05-04T13:26:26.154Z,27.57
2023-05-04T13:28:52.887Z,26.82
2023-05-04T13:31:19.628Z,26.65
2023-05-04T13:33:46.726Z,26.65
2023-05-04T13:36:13.509Z,26.52
2023-05-04T13:38:40.121Z,26.47
2023-05-04T13:41:06.821Z,26.55
2023-05-04T13:43:33.420Z,26.40
2023-05-04T13:46:04.431Z,26.17
2023-05-04T13:48:32.916Z,26.02
2023-05-04T13:50:59.593Z,26.00
2023-05-04T13:53:26.446Z,25.95
2023-05-04T13:55:53.087Z,25.80
2023-05-04T13:58:19.675Z,25.69
2023-05-04T14:00:46.718Z,25.61
2023-05-04T14:03:13.329Z,25.57
2023-05-04T14:05:39.958Z,25.44
2023-05-04T14:08:06.654Z,25.30
2023-05-04T14:10:34.934Z,25.26
2023-05-04T14:13:02.642Z,25.29
2023-05-04T14:15:29.495Z,25.30
2023-05-04T14:17:56.612Z,25.33
2023-05-04T14:20:23.300Z,25.25
2023-05-04T14:22:49.865Z,25.10
2023-05-04T14:25:16.571Z,24.90
2023-05-04T14:27:43.513Z,24.68
2023-05-04T14:30:10.953Z,24.50
2023-05-04T14:32:37.523Z,24.32
2023-05-04T14:35:08.518Z,24.19
2023-05-04T14:37:38.119Z,24.07
2023-05-04T14:40:06.591Z,23.84
2023-05-04T14:42:33.473Z,23.53
2023-05-04T14:45:00.068Z,23.26
2023-05-04T14:47:27.642Z,23.06
2023-05-04T14:49:54.398Z,22.84
2023-05-04T14:52:21.267Z,22.50
2023-05-04T14:54:47.793Z,22.20
2023-05-04T14:57:14.440Z,22.04
2023-05-04T14:59:42.135Z,21.85
2023-05-04T15:02:09.194Z,21.65
2023-05-04T15:04:36.441Z,21.48
2023-05-04T15:07:04.610Z,21.33
2023-05-04T15:09:31.677Z,21.23
2023-05-04T15:11:58.362Z,21.17
2023-05-04T15:14:26.425Z,21.11
2023-05-04T15:16:53.069Z,21.07
2023-05-04T15:19:21.097Z,21.07
2023-05-04T15:21:48.639Z,21.05
2023-05-04T15:24:15.242Z,20.89
2023-05-04T15:26:41.834Z,20.61
2023-05-04T15:29:08.792Z,20.26
2023-05-04T15:31:35.995Z,19.94
2023-05-04T15:34:02.799Z,19.81
2023-05-04T15:36:31.745Z,19.74
2023-05-04T15:38:58.383Z,19.71
2023-05-04T15:41:24.978Z,19.70
2023-05-04T15:43:51.591Z,19.72
2023-05-04T15:46:18.165Z,19.74
2023-05-04T15:48:44.930Z,19.66
2023-05-04T15:51:14.970Z,19.54
2023-05-04T15:53:41.685Z,19.46
2023-05-04T15:56:08.434Z,19.34
2023-05-04T15:58:35.080Z,19.14
2023-05-04T16:01:04.037Z,18.88
2023-05-04T16:03:31.815Z,18.68
2023-05-04T16:05:58.600Z,18.58
2023-05-04T16:08:25.998Z,18.51
2023-05-04T16:10:54.124Z,18.41
2023-05-04T16:13:20.895Z,18.32
2023-05-04T16:15:51.572Z,18.27
2023-05-04T16:18:18.582Z,18.22
2023-05-04T16:20:46.291Z,18.16
2023-05-04T16:23:15.207Z,18.11
2023-05-04T16:25:42.429Z,18.07
2023-05-04T16:28:10.268Z,18.08
2023-05-04T16:30:37.855Z,18.08
2023-05-04T16:33:04.664Z,18.05
2023-05-04T16:35:32.189Z,18.02
2023-05-04T16:37:59.023Z,17.97
2023-05-04T16:40:25.734Z,17.91
2023-05-04T16:42:52.415Z,17.84
2023-05-04T16:45:19.557Z,17.76
2023-05-04T16:47:46.413Z,17.67
2023-05-04T16:50:14.318Z,17.58
2023-05-04T16:52:41.955Z,17.49
2023-05-04T16:55:12.063Z,17.41
2023-05-04T16:57:39.159Z,17.37
2023-05-04T17:00:07.109Z,17.34
2023-05-04T17:02:34.346Z,17.34
2023-05-04T17:05:01.169Z,17.36
2023-05-04T17:07:28.529Z,17.37
2023-05-04T17:09:55.152Z,17.37
2023-05-04T17:12:23.423Z,17.29
2023-05-04T17:14:50.210Z,17.20
2023-05-04T17:17:16.849Z,17.10
2023-05-04T17:19:43.414Z,17.00
2023-05-04T17:22:11.204Z,16.89
2023-05-04T17:24:38.067Z,16.75
2023-05-04T17:27:04.975Z,16.60
2023-05-04T17:29:31.757Z,16.47
2023-05-04T17:31:58.703Z,16.30
2023-05-04T17:34:25.346Z,16.13
2023-05-04T17:36:52.206Z,15.97
2023-05-04T17:39:19.904Z,15.76
2023-05-04T17:41:48.801Z,15.55
2023-05-04T17:44:16.433Z,15.37
2023-05-04T17:46:43.743Z,15.23
2023-05-04T17:49:10.650Z,15.08
2023-05-04T17:51:37.434Z,14.89
2023-05-04T17:54:04.209Z,14.68
2023-05-04T17:56:31.032Z,14.48
2023-05-04T17:58:57.735Z,14.31
2023-05-04T18:01:24.500Z,14.17
2023-05-04T18:03:51.235Z,14.01
2023-05-04T18:06:18.089Z,13.88
2023-05-04T18:08:44.938Z,13.73
2023-05-04T18:11:12.352Z,13.60
2023-05-04T18:13:39.001Z,13.46
2023-05-04T18:16:05.920Z,13.33
2023-05-04T18:18:33.310Z,13.19
2023-05-04T18:21:00.932Z,13.08
2023-05-04T18:23:27.670Z,12.95
2023-05-04T18:25:54.388Z,12.82
2023-05-04T18:28:21.149Z,12.68
2023-05-04T18:30:48.085Z,12.54
2023-05-04T18:33:14.705Z,12.40
2023-05-04T18:35:41.915Z,12.24
2023-05-04T18:38:08.608Z,12.09
2023-05-04T18:40:35.390Z,11.95
2023-05-04T18:43:02.016Z,11.82
2023-05-04T18:45:28.677Z,11.71
2023-05-04T18:47:55.425Z,11.59
2023-05-04T18:50:22.010Z,11.46
2023-05-04T18:52:48.638Z,11.32
2023-05-04T18:55:15.242Z,11.18
2023-05-04T18:57:41.842Z,11.05
2023-05-04T19:00:09.304Z,10.94
2023-05-04T19:02:37.177Z,10.84
2023-05-04T19:05:04.010Z,10.74
2023-05-04T19:07:30.673Z,10.63
2023-05-04T19:09:57.657Z,10.53
2023-05-04T19:12:24.563Z,10.43
2023-05-04T19:14:51.325Z,10.33
2023-05-04T19:17:18.727Z,10.23
2023-05-04T19:19:45.594Z,10.14
2023-05-04T19:22:13.403Z,10.06
2023-05-04T19:24:40.152Z,10.00
2023-05-04T19:27:07.378Z,9.94
2023-05-04T19:29:34.218Z,9.89
2023-05-04T19:32:05.585Z,9.82
2023-05-04T19:34:42.996Z,9.77
2023-05-04T19:37:09.905Z,9.73
2023-05-04T19:39:36.791Z,9.67
2023-05-04T19:42:03.625Z,9.62
2023-05-04T19:44:30.312Z,9.56
2023-05-04T19:46:57.229Z,9.49
2023-05-04T19:49:25.037Z,9.44
2023-05-04T19:51:51.881Z,9.38
2023-05-04T19:54:18.660Z,9.34
2023-05-04T19:56:45.506Z,9.30
2023-05-04T19:59:12.343Z,9.25
2023-05-04T20:01:39.085Z,9.18
2023-05-04T20:04:08.300Z,9.11
2023-05-04T20:06:36.166Z,9.05
2023-05-04T20:09:03.967Z,8.99
2023-05-04T20:11:31.040Z,8.94
2023-05-04T20:13:57.901Z,8.89
2023-05-04T20:16:24.698Z,8.83
2023-05-04T20:18:51.350Z,8.78
2023-05-04T20:21:18.088Z,8.72
2023-05-04T20:23:45.141Z,8.65
2023-05-04T20:26:12.108Z,8.57
2023-05-04T20:28:39.285Z,8.48
2023-05-04T20:31:07.697Z,8.41
2023-05-04T20:33:34.791Z,8.33
2023-05-04T20:36:02.540Z,8.27
2023-05-04T20:38:29.259Z,8.23
2023-05-04T20:40:56.059Z,8.19
2023-05-04T20:43:23.009Z,8.15
2023-05-04T20:45:49.736Z,8.09
2023-05-04T20:48:16.582Z,8.02
2023-05-04T20:50:43.418Z,7.95
2023-05-04T20:53:10.097Z,7.88
2023-05-04T20:55:37.275Z,7.82
2023-05-04T20:58:03.934Z,7.76
2023-05-04T21:00:32.382Z,7.72
2023-05-04T21:03:00.530Z,7.68
2023-05-04T21:05:27.460Z,7.64
2023-05-04T21:07:54.447Z,7.60
2023-05-04T21:10:21.433Z,7.56
2023-05-04T21:12:48.413Z,7.51
2023-05-04T21:15:15.300Z,7.46
2023-05-04T21:17:42.092Z,7.40
2023-05-04T21:20:09.580Z,7.34
2023-05-04T21:22:37.203Z,7.27
2023-05-04T21:25:04.517Z,7.22
2023-05-04T21:27:31.758Z,7.17
2023-05-04T21:29:58.727Z,7.12
2023-05-04T21:32:29.197Z,7.05
2023-05-04T21:34:56.382Z,6.98
2023-05-04T21:37:23.071Z,6.90
2023-05-04T21:39:55.793Z,6.98
2023-05-04T21:42:23.876Z,7.73
2023-05-04T21:44:55.314Z,8.56
2023-05-04T21:47:25.806Z,9.32
2023-05-04T21:49:53.849Z,9.65
2023-05-04T21:52:21.128Z,9.19
2023-05-04T21:54:47.818Z,8.65
2023-05-04T21:57:14.876Z,8.26
2023-05-04T21:59:41.561Z,7.99
2023-05-04T22:02:09.952Z,7.76
2023-05-04T22:04:36.861Z,7.57
2023-05-04T22:07:03.613Z,7.40
2023-05-04T22:09:30.288Z,7.24
2023-05-04T22:11:57.127Z,7.12
2023-05-04T22:14:23.714Z,7.01
2023-05-04T22:16:52.982Z,6.90
2023-05-04T22:19:19.653Z,6.83
2023-05-04T22:21:46.278Z,6.77
2023-05-04T22:24:12.870Z,6.83
2023-05-04T22:26:40.834Z,7.53
2023-05-04T22:29:07.383Z,8.29
2023-05-04T22:31:33.965Z,8.87
2023-05-04T22:34:00.816Z,9.18
2023-05-04T22:36:27.597Z,8.82
2023-05-04T22:38:54.166Z,8.37
2023-05-04T22:41:21.288Z,8.03
2023-05-04T22:43:47.894Z,7.78
2023-05-04T22:46:16.842Z,7.59
2023-05-04T22:48:46.711Z,7.43
2023-05-04T22:51:14.727Z,7.30
2023-05-04T22:53:41.370Z,7.19
2023-05-04T22:56:08.517Z,7.10
2023-05-04T22:58:35.540Z,7.02
2023-05-04T23:01:02.812Z,6.95
2023-05-04T23:03:29.489Z,6.89
2023-05-04T23:05:59.910Z,6.95
2023-05-04T23:08:26.552Z,7.63
2023-05-04T23:10:53.199Z,8.36
2023-05-04T23:13:19.772Z,8.79
2023-05-04T23:15:46.761Z,8.54
2023-05-04T23:18:15.435Z,8.14
2023-05-04T23:20:42.872Z,7.84
2023-05-04T23:23:09.438Z,7.61
2023-05-04T23:25:36.398Z,7.43
2023-05-04T23:28:03.644Z,7.30
2023-05-04T23:30:30.338Z,7.18
2023-05-04T23:32:57.839Z,7.09
2023-05-04T23:35:24.493Z,7.00
2023-05-04T23:37:51.236Z,6.92
2023-05-04T23:40:17.858Z,6.86
2023-05-04T23:42:48.097Z,6.80
2023-05-04T23:45:14.699Z,6.90
2023-05-04T23:47:41.249Z,7.59
2023-05-04T23:50:08.629Z,8.34
2023-05-04T23:52:35.380Z,8.93
2023-05-04T23:55:02.187Z,9.28
2023-05-04T23:57:28.731Z,8.97
2023-05-04T23:59:55.395Z,8.55
